createdAt,value
2023-05-10T00:01:42.816Z,100605.53
2023-05-10T00:04:09.949Z,100589.66
2023-05-10T00:06:36.880Z,100636.91
2023-05-10T00:09:04.551Z,100637.91
2023-05-10T00:11:31.564Z,100632.63
2023-05-10T00:13:58.410Z,100619.94
2023-05-10T00:16:25.463Z,100627.78
2023-05-10T00:18:52.305Z,100627.91
2023-05-10T00:21:19.183Z,100638.59
2023-05-10T00:23:46.059Z,100637.94
2023-05-10T00:26:13.004Z,100602.06
2023-05-10T00:28:39.995Z,100594.44
2023-05-10T00:31:06.917Z,100567.34
2023-05-10T00:33:33.897Z,100626.28
2023-05-10T00:36:01.177Z,100627.28
2023-05-10T00:38:28.094Z,100592.28
2023-05-10T00:40:55.035Z,100623.03
2023-05-10T00:43:21.939Z,100609.87
2023-05-10T00:45:49.518Z,100622.28
2023-05-10T00:48:16.429Z,100615.25
2023-05-10T00:50:43.358Z,100588.97
2023-05-10T00:53:10.674Z,100620.59
2023-05-10T00:55:38.372Z,100617.97
2023-05-10T00:58:06.089Z,100548.81
2023-05-10T01:00:34.439Z,100617.19
2023-05-10T01:03:02.389Z,100591.72
2023-05-10T01:05:29.472Z,100616.22
2023-05-10T01:07:57.234Z,100620.59
2023-05-10T01:10:24.185Z,100617.00
2023-05-10T01:12:52.002Z,100611.69
2023-05-10T01:15:19.861Z,100602.03
2023-05-10T01:17:48.536Z,100617.00
2023-05-10T01:20:16.336Z,100599.47
2023-05-10T01:22:51.081Z,100611.69
2023-05-10T01:25:32.938Z,100615.22
2023-05-10T01:28:28.041Z,100623.06
2023-05-10T01:31:16.742Z,100616.87
2023-05-10T01:33:56.154Z,100613.28
2023-05-10T01:36:33.885Z,100614.09
2023-05-10T01:39:33.336Z,100618.44
2023-05-10T01:42:11.465Z,100626.28
2023-05-10T01:44:50.256Z,100612.94
2023-05-10T01:47:25.437Z,100608.50
2023-05-10T01:50:01.928Z,100607.50
2023-05-10T01:52:34.584Z,100606.50
2023-05-10T01:55:04.087Z,100570.50
2023-05-10T01:57:36.358Z,100595.81
2023-05-10T02:00:08.812Z,100611.59
2023-05-10T02:02:43.114Z,100605.44
2023-05-10T02:05:13.127Z,100570.28
2023-05-10T02:07:40.953Z,100581.59
2023-05-10T02:10:10.404Z,100595.53
2023-05-10T02:12:40.559Z,100588.47
2023-05-10T02:15:08.948Z,100594.69
2023-05-10T02:17:38.280Z,100587.56
2023-05-10T02:20:07.513Z,100581.59
2023-05-10T02:22:36.131Z,100584.12
2023-05-10T02:25:04.392Z,100591.25
2023-05-10T02:27:31.880Z,100549.41
2023-05-10T02:29:59.579Z,100586.69
2023-05-10T02:32:28.017Z,100594.78
2023-05-10T02:34:56.018Z,100598.34
2023-05-10T02:37:23.803Z,100595.66
2023-05-10T02:39:53.451Z,100598.34
2023-05-10T02:42:26.299Z,100582.59
2023-05-10T02:44:57.630Z,100602.69
2023-05-10T02:47:24.921Z,100603.66
2023-05-10T02:49:51.788Z,100601.00
2023-05-10T02:52:25.925Z,100605.38
2023-05-10T02:54:56.572Z,100601.81
2023-05-10T02:57:35.431Z,100607.13
2023-05-10T03:00:04.392Z,100600.13
2023-05-10T03:02:32.063Z,100610.56
2023-05-10T03:04:59.297Z,100606.19
2023-05-10T03:07:26.568Z,100605.25
2023-05-10T03:09:53.836Z,100582.50
2023-05-10T03:12:45.767Z,100607.97
2023-05-10T03:15:33.805Z,100606.22
2023-05-10T03:18:12.128Z,100601.91
2023-05-10T03:21:02.829Z,100605.44
2023-05-10T03:23:51.773Z,100602.94
2023-05-10T03:26:25.136Z,100607.38
2023-05-10T03:28:53.459Z,100590.84
2023-05-10T03:31:20.577Z,100599.56
2023-05-10T03:33:52.279Z,100597.75
2023-05-10T03:36:19.926Z,100596.97
2023-05-10T03:38:46.898Z,100560.13
2023-05-10T03:41:14.001Z,100589.94
2023-05-10T03:43:40.908Z,100597.91
2023-05-10T03:46:07.733Z,100596.16
2023-05-10T03:48:34.691Z,100548.87
2023-05-10T03:51:01.592Z,100604.13
2023-05-10T03:53:28.671Z,100607.63
2023-05-10T03:55:55.664Z,100598.75
2023-05-10T03:58:22.962Z,100568.09
2023-05-10T04:00:49.849Z,100603.91
2023-05-10T04:03:16.963Z,100571.50
2023-05-10T04:05:43.968Z,100600.34
2023-05-10T04:08:10.956Z,100607.38
2023-05-10T04:10:38.000Z,100600.25
2023-05-10T04:13:04.871Z,100563.34
2023-05-10T04:15:31.753Z,100597.53
2023-05-10T04:17:58.906Z,100597.69
2023-05-10T04:20:26.253Z,100594.19
2023-05-10T04:22:53.180Z,100595.91
2023-05-10T04:25:20.139Z,100603.75
2023-05-10T04:27:47.053Z,100549.37
2023-05-10T04:30:14.155Z,100608.84
2023-05-10T04:32:41.321Z,100584.12
2023-05-10T04:35:08.670Z,100598.06
2023-05-10T04:37:35.741Z,100599.66
2023-05-10T04:40:04.103Z,100566.34
2023-05-10T04:42:30.985Z,100605.59
2023-05-10T04:44:58.000Z,100601.97
2023-05-10T04:47:24.968Z,100602.94
2023-05-10T04:49:52.029Z,100598.62
2023-05-10T04:52:19.076Z,100603.09
2023-05-10T04:54:45.944Z,100589.91
2023-05-10T04:57:12.801Z,100596.00
2023-05-10T04:59:39.706Z,100593.31
2023-05-10T05:02:06.923Z,100599.56
2023-05-10T05:04:33.777Z,100601.38
2023-05-10T05:07:00.667Z,100597.97
2023-05-10T05:09:27.565Z,100572.06
2023-05-10T05:11:54.589Z,100610.63
2023-05-10T05:14:26.177Z,100602.06
2023-05-10T05:16:53.801Z,100603.75
2023-05-10T05:19:20.680Z,100609.94
2023-05-10T05:21:47.775Z,100614.25
2023-05-10T05:24:14.626Z,100602.94
2023-05-10T05:26:41.490Z,100605.50
2023-05-10T05:29:08.494Z,100617.81
2023-05-10T05:31:35.386Z,100620.28
2023-05-10T05:34:02.541Z,100618.50
2023-05-10T05:36:29.550Z,100622.00
2023-05-10T05:38:56.530Z,100618.53
2023-05-10T05:41:23.541Z,100623.72
2023-05-10T05:43:50.437Z,100618.03
2023-05-10T05:46:17.364Z,100618.66
2023-05-10T05:48:44.337Z,100621.97
2023-05-10T05:51:14.006Z,100628.88
2023-05-10T05:53:41.024Z,100628.53
2023-05-10T05:56:09.134Z,100624.53
2023-05-10T05:58:36.608Z,100635.03
2023-05-10T06:01:03.549Z,100632.84
2023-05-10T06:03:30.968Z,100633.50
2023-05-10T06:05:57.935Z,100632.94
2023-05-10T06:08:24.859Z,100629.97
2023-05-10T06:10:51.930Z,100630.66
2023-05-10T06:13:18.926Z,100560.47
2023-05-10T06:15:46.469Z,100540.12
2023-05-10T06:18:13.340Z,100627.72
2023-05-10T06:20:42.761Z,100638.56
2023-05-10T06:23:09.702Z,100641.22
2023-05-10T06:25:36.610Z,100634.94
2023-05-10T06:28:03.544Z,100643.53
2023-05-10T06:30:30.575Z,100630.50
2023-05-10T06:32:57.643Z,100637.31
2023-05-10T06:35:24.714Z,100628.75
2023-05-10T06:37:52.452Z,100637.72
2023-05-10T06:40:19.759Z,100631.75
2023-05-10T06:42:47.435Z,100634.69
2023-05-10T06:45:16.054Z,100640.28
2023-05-10T06:47:43.223Z,100629.25
2023-05-10T06:50:12.532Z,100640.44
2023-05-10T06:52:40.008Z,100636.09
2023-05-10T06:55:27.458Z,100633.84
2023-05-10T06:57:55.017Z,100628.50
2023-05-10T07:00:22.099Z,100634.81
2023-05-10T07:02:49.065Z,100643.00
2023-05-10T07:05:16.480Z,100630.97
2023-05-10T07:07:43.464Z,100636.41
2023-05-10T07:10:10.905Z,100635.03
2023-05-10T07:12:37.842Z,100637.88
2023-05-10T07:15:05.705Z,100640.28
2023-05-10T07:17:34.416Z,100630.69
2023-05-10T07:20:01.564Z,100639.81
2023-05-10T07:22:28.463Z,100637.88
2023-05-10T07:24:55.591Z,100637.53
2023-05-10T07:27:22.453Z,100624.81
2023-05-10T07:29:49.593Z,100644.91
2023-05-10T07:32:16.732Z,100634.41
2023-05-10T07:34:43.683Z,100615.12
2023-05-10T07:37:10.621Z,100611.16
2023-05-10T07:39:37.533Z,100623.47
2023-05-10T07:42:04.672Z,100600.88
2023-05-10T07:44:31.674Z,100617.53
2023-05-10T07:46:58.550Z,100618.12
2023-05-10T07:49:25.412Z,100622.81
2023-05-10T07:51:52.429Z,100617.63
2023-05-10T07:54:19.429Z,100619.63
2023-05-10T07:56:48.371Z,100617.38
2023-05-10T07:59:18.717Z,100615.81
2023-05-10T08:01:46.146Z,100620.06
2023-05-10T08:04:13.209Z,100617.53
2023-05-10T08:06:41.392Z,100623.72
2023-05-10T08:09:08.568Z,100620.56
2023-05-10T08:11:35.486Z,100626.81
2023-05-10T08:14:02.390Z,100624.09
2023-05-10T08:16:29.979Z,100610.16
2023-05-10T08:18:57.122Z,100602.34
2023-05-10T08:21:23.961Z,100627.19
2023-05-10T08:23:50.982Z,100621.00
2023-05-10T08:26:17.947Z,100614.28
2023-05-10T08:28:44.854Z,100620.66
2023-05-10T08:31:11.839Z,100610.94
2023-05-10T08:33:38.696Z,100617.03
2023-05-10T08:36:05.601Z,100617.13
2023-05-10T08:38:32.493Z,100618.91
2023-05-10T08:41:00.447Z,100625.41
2023-05-10T08:43:31.474Z,100620.97
2023-05-10T08:46:02.894Z,100612.94
2023-05-10T08:48:30.927Z,100625.09
2023-05-10T08:50:59.960Z,100628.75
2023-05-10T08:53:29.806Z,100616.47
2023-05-10T08:55:56.919Z,100614.31
2023-05-10T08:58:23.886Z,100608.66
2023-05-10T09:00:54.231Z,100608.69
2023-05-10T09:03:21.260Z,100604.00
2023-05-10T09:05:50.062Z,100608.16
2023-05-10T09:08:20.898Z,100608.44
2023-05-10T09:10:49.620Z,100609.06
2023-05-10T09:13:16.778Z,100596.34
2023-05-10T09:15:45.714Z,100610.66
2023-05-10T09:18:13.489Z,100610.47
2023-05-10T09:20:40.652Z,100611.56
2023-05-10T09:23:07.939Z,100610.88
2023-05-10T09:25:34.935Z,100617.38
2023-05-10T09:28:02.002Z,100614.94
2023-05-10T09:30:32.428Z,100620.28
2023-05-10T09:33:00.367Z,100620.13
2023-05-10T09:35:30.374Z,100607.00
2023-05-10T09:38:00.291Z,100611.69
2023-05-10T09:40:29.315Z,100608.25
2023-05-10T09:43:06.991Z,100603.72
2023-05-10T09:45:37.769Z,100600.72
2023-05-10T09:48:06.134Z,100606.37
2023-05-10T09:50:33.232Z,100596.22
2023-05-10T09:53:03.755Z,100605.88
2023-05-10T09:55:41.224Z,100521.00
2023-05-10T09:58:11.856Z,100569.59
2023-05-10T10:00:41.458Z,100588.44
2023-05-10T10:03:21.170Z,100586.91
2023-05-10T10:05:49.868Z,100584.34
2023-05-10T10:08:17.649Z,100594.81
2023-05-10T10:10:47.625Z,100587.34
2023-05-10T10:13:16.539Z,100590.22
2023-05-10T10:15:45.228Z,100578.50
2023-05-10T10:18:16.554Z,100587.28
2023-05-10T10:20:43.978Z,100585.34
2023-05-10T10:23:10.990Z,100580.66
2023-05-10T10:25:40.151Z,100572.25
2023-05-10T10:28:27.551Z,100567.84
2023-05-10T10:30:56.927Z,100573.81
2023-05-10T10:34:02.030Z,100562.03
2023-05-10T10:36:29.089Z,100566.78
2023-05-10T10:39:04.231Z,100510.03
2023-05-10T10:41:35.295Z,100521.19
2023-05-10T10:44:27.833Z,100544.81
2023-05-10T10:47:24.147Z,100563.31
2023-05-10T10:49:53.568Z,100540.00
2023-05-10T10:52:31.076Z,100551.56
2023-05-10T10:55:04.342Z,100532.84
2023-05-10T10:57:46.802Z,100517.25
2023-05-10T11:00:27.477Z,100484.56
2023-05-10T11:02:59.069Z,100528.94
2023-05-10T11:05:45.666Z,100542.25
2023-05-10T11:08:28.592Z,100545.09
2023-05-10T11:11:05.072Z,100539.28
2023-05-10T11:13:36.057Z,100534.25
2023-05-10T11:16:14.736Z,100519.31
2023-05-10T11:18:42.130Z,100480.84
2023-05-10T11:21:11.890Z,100517.16
2023-05-10T11:23:44.764Z,100513.50
2023-05-10T11:26:13.076Z,100529.50
2023-05-10T11:28:49.942Z,100514.03
2023-05-10T11:31:19.286Z,100505.16
2023-05-10T11:33:51.085Z,100504.63
2023-05-10T11:36:20.401Z,100502.91
2023-05-10T11:38:48.344Z,100498.63
2023-05-10T11:41:17.886Z,100491.22
2023-05-10T11:43:47.865Z,100493.12
2023-05-10T11:46:15.076Z,100507.84
2023-05-10T11:48:43.682Z,100497.87
2023-05-10T11:51:11.783Z,100494.22
2023-05-10T11:53:39.320Z,100491.53
2023-05-10T11:56:11.042Z,100485.50
2023-05-10T11:58:39.988Z,100482.13
2023-05-10T12:01:09.022Z,100489.31
2023-05-10T12:03:37.059Z,100482.25
2023-05-10T12:06:04.592Z,100485.72
2023-05-10T12:08:32.034Z,100490.09
2023-05-10T12:11:09.017Z,100474.19
2023-05-10T12:13:43.778Z,100484.06
2023-05-10T12:16:18.520Z,100486.62
2023-05-10T12:18:46.267Z,100483.84
2023-05-10T12:21:13.755Z,100485.22
2023-05-10T12:23:40.857Z,100479.81
2023-05-10T12:26:10.529Z,100448.56
2023-05-10T12:28:39.024Z,100483.88
2023-05-10T12:31:06.896Z,100478.84
2023-05-10T12:33:40.039Z,100476.56
2023-05-10T12:36:07.802Z,100473.00
2023-05-10T12:38:40.253Z,100479.34
2023-05-10T12:41:09.545Z,100469.84
2023-05-10T12:43:37.321Z,100466.50
2023-05-10T12:46:17.476Z,100469.41
2023-05-10T12:48:45.580Z,100464.47
2023-05-10T12:51:14.166Z,100467.59
2023-05-10T12:53:43.689Z,100465.75
2023-05-10T12:56:12.061Z,100456.28
2023-05-10T12:58:39.636Z,100468.03
2023-05-10T13:01:06.619Z,100462.41
2023-05-10T13:03:33.718Z,100454.97
2023-05-10T13:06:00.763Z,100448.00
2023-05-10T13:08:27.575Z,100451.84
2023-05-10T13:10:54.526Z,100450.72
2023-05-10T13:13:21.420Z,100443.25
2023-05-10T13:15:48.157Z,100443.34
2023-05-10T13:18:15.066Z,100436.78
2023-05-10T13:20:42.053Z,100431.16
2023-05-10T13:23:08.941Z,100429.84
2023-05-10T13:25:35.807Z,100427.41
2023-05-10T13:28:03.247Z,100425.69
2023-05-10T13:30:30.209Z,100431.75
2023-05-10T13:32:57.276Z,100371.94
2023-05-10T13:35:24.425Z,100413.09
2023-05-10T13:37:51.252Z,100414.47
2023-05-10T13:40:18.368Z,100412.78
2023-05-10T13:42:45.562Z,100402.47
2023-05-10T13:45:14.211Z,100404.56
2023-05-10T13:47:41.168Z,100407.06
2023-05-10T13:50:08.387Z,100399.44
2023-05-10T13:52:35.415Z,100394.72
2023-05-10T13:55:02.257Z,100389.03
2023-05-10T13:57:29.913Z,100383.63
2023-05-10T13:59:58.350Z,100389.78
2023-05-10T14:02:25.776Z,100383.37
2023-05-10T14:04:52.930Z,100380.03
2023-05-10T14:07:20.373Z,100369.00
2023-05-10T14:09:47.247Z,100349.78
2023-05-10T14:12:15.535Z,100370.31
2023-05-10T14:14:42.361Z,100370.69
2023-05-10T14:17:11.473Z,100376.56
2023-05-10T14:19:40.070Z,100374.75
2023-05-10T14:22:07.328Z,100370.97
2023-05-10T14:24:34.214Z,100369.06
2023-05-10T14:27:01.329Z,100367.94
2023-05-10T14:29:28.360Z,100365.94
2023-05-10T14:31:55.182Z,100355.19
2023-05-10T14:34:22.083Z,100365.63
2023-05-10T14:36:48.935Z,100362.44
2023-05-10T14:39:15.984Z,100348.78
2023-05-10T14:41:44.032Z,100322.06
2023-05-10T14:44:11.125Z,100355.59
2023-05-10T14:46:38.383Z,100349.72
2023-05-10T14:49:05.497Z,100330.44
2023-05-10T14:51:32.808Z,100371.28
2023-05-10T14:53:59.970Z,100361.88
2023-05-10T14:56:29.574Z,100363.22
2023-05-10T14:58:56.647Z,100342.72
2023-05-10T15:01:24.159Z,100351.03
2023-05-10T15:03:51.802Z,100353.94
2023-05-10T15:06:26.003Z,100369.66
2023-05-10T15:08:52.896Z,100364.62
2023-05-10T15:11:19.781Z,100363.00
2023-05-10T15:13:46.537Z,100358.72
2023-05-10T15:16:13.454Z,100366.56
2023-05-10T15:18:40.451Z,100370.62
2023-05-10T15:21:07.430Z,100369.03
2023-05-10T15:23:34.275Z,100363.47
2023-05-10T15:26:01.793Z,100370.97
2023-05-10T15:28:28.588Z,100369.56
2023-05-10T15:30:57.193Z,100342.84
2023-05-10T15:33:24.172Z,100364.25
2023-05-10T15:35:51.136Z,100344.28
2023-05-10T15:38:18.246Z,100327.88
2023-05-10T15:40:45.234Z,100364.22
2023-05-10T15:43:12.111Z,100362.66
2023-05-10T15:45:38.924Z,100289.44
2023-05-10T15:48:05.957Z,100355.63
2023-05-10T15:50:32.898Z,100336.16
2023-05-10T15:52:59.818Z,100347.72
2023-05-10T15:55:39.481Z,100347.19
2023-05-10T15:58:06.291Z,100347.44
2023-05-10T16:00:36.257Z,100354.94
2023-05-10T16:03:03.290Z,100348.94
2023-05-10T16:05:33.580Z,100346.25
2023-05-10T16:08:01.887Z,100346.06
2023-05-10T16:10:31.737Z,100348.31
2023-05-10T16:12:58.782Z,100346.91
2023-05-10T16:15:25.710Z,100352.81
2023-05-10T16:17:52.815Z,100348.09
2023-05-10T16:20:20.049Z,100323.50
2023-05-10T16:22:46.943Z,100345.00
2023-05-10T16:25:13.912Z,100352.81
2023-05-10T16:27:41.042Z,100345.69
2023-05-10T16:30:08.708Z,100291.22
2023-05-10T16:32:35.601Z,100356.91
2023-05-10T16:35:02.464Z,100349.50
2023-05-10T16:37:29.364Z,100370.19
2023-05-10T16:39:56.416Z,100354.34
2023-05-10T16:42:24.282Z,100361.91
2023-05-10T16:44:51.127Z,100328.59
2023-05-10T16:47:18.411Z,100360.41
2023-05-10T16:49:45.746Z,100330.41
2023-05-10T16:52:12.653Z,100360.81
2023-05-10T16:54:39.557Z,100337.34
2023-05-10T16:57:06.413Z,100367.38
2023-05-10T16:59:33.386Z,100373.47
2023-05-10T17:02:00.348Z,100377.56
2023-05-10T17:04:27.258Z,100376.50
2023-05-10T17:06:54.200Z,100379.31
2023-05-10T17:09:21.354Z,100375.75
2023-05-10T17:11:48.360Z,100378.12
2023-05-10T17:14:15.168Z,100345.97
2023-05-10T17:16:42.155Z,100379.34
2023-05-10T17:19:09.483Z,100375.66
2023-05-10T17:21:36.559Z,100385.38
2023-05-10T17:24:03.437Z,100380.28
2023-05-10T17:26:30.573Z,100363.38
2023-05-10T17:28:57.897Z,100387.38
2023-05-10T17:31:24.921Z,100395.63
2023-05-10T17:33:51.869Z,100371.94
2023-05-10T17:36:18.965Z,100381.66
2023-05-10T17:38:45.861Z,100376.81
2023-05-10T17:41:12.735Z,100402.44
2023-05-10T17:43:39.581Z,100407.91
2023-05-10T17:46:06.497Z,100384.38
2023-05-10T17:48:33.821Z,100392.87
2023-05-10T17:51:00.696Z,100407.81
2023-05-10T17:53:27.607Z,100401.81
2023-05-10T17:55:58.071Z,100399.47
2023-05-10T17:58:25.449Z,100402.34
2023-05-10T18:00:53.007Z,100409.66
2023-05-10T18:03:19.964Z,100405.47
2023-05-10T18:05:47.986Z,100412.03
2023-05-10T18:08:15.728Z,100410.56
2023-05-10T18:10:42.802Z,100412.50
2023-05-10T18:13:09.796Z,100414.66
2023-05-10T18:15:37.286Z,100409.44
2023-05-10T18:18:05.254Z,100401.00
2023-05-10T18:20:32.848Z,100421.31
2023-05-10T18:23:00.136Z,100427.00
2023-05-10T18:25:27.403Z,100422.97
2023-05-10T18:27:54.674Z,100334.31
2023-05-10T18:30:22.754Z,100428.50
2023-05-10T18:32:50.756Z,100396.72
2023-05-10T18:35:19.574Z,100426.31
2023-05-10T18:37:48.696Z,100425.97
2023-05-10T18:40:17.724Z,100360.78
2023-05-10T18:42:50.187Z,100436.87
2023-05-10T18:45:18.928Z,100443.25
2023-05-10T18:47:47.396Z,100391.31
2023-05-10T18:50:17.600Z,100443.66
2023-05-10T18:52:46.890Z,100441.06
2023-05-10T18:55:15.590Z,100443.84
2023-05-10T18:57:45.270Z,100451.31
2023-05-10T19:00:14.482Z,100450.81
2023-05-10T19:02:42.667Z,100452.66
2023-05-10T19:05:10.920Z,100453.87
2023-05-10T19:07:44.950Z,100447.88
2023-05-10T19:10:13.955Z,100455.06
2023-05-10T19:12:41.969Z,100456.12
2023-05-10T19:15:10.747Z,100450.31
2023-05-10T19:17:40.732Z,100454.88
2023-05-10T19:20:10.760Z,100463.72
2023-05-10T19:22:54.158Z,100464.22
2023-05-10T19:25:29.806Z,100463.56
2023-05-10T19:27:58.681Z,100449.94
2023-05-10T19:30:27.138Z,100395.44
2023-05-10T19:32:56.065Z,100462.78
2023-05-10T19:35:24.217Z,100463.59
2023-05-10T19:37:52.688Z,100464.63
2023-05-10T19:40:20.631Z,100462.88
2023-05-10T19:42:49.009Z,100456.22
2023-05-10T19:45:17.370Z,100463.19
2023-05-10T19:47:45.614Z,100441.69
2023-05-10T19:50:14.008Z,100466.00
2023-05-10T19:52:42.908Z,100464.13
2023-05-10T19:55:11.872Z,100460.97
2023-05-10T19:57:39.822Z,100462.78
2023-05-10T20:00:08.450Z,100425.47
2023-05-10T20:02:36.233Z,100456.44
2023-05-10T20:05:04.244Z,100463.31
2023-05-10T20:07:32.258Z,100455.13
2023-05-10T20:09:59.939Z,100464.09
2023-05-10T20:12:27.381Z,100453.44
2023-05-10T20:14:54.576Z,100418.66
2023-05-10T20:17:22.257Z,100454.19
2023-05-10T20:19:49.618Z,100463.41
2023-05-10T20:22:17.214Z,100463.34
2023-05-10T20:24:44.500Z,100418.00
2023-05-10T20:27:12.083Z,100458.25
2023-05-10T20:29:40.132Z,100424.63
2023-05-10T20:32:07.908Z,100468.41
2023-05-10T20:34:35.595Z,100461.41
2023-05-10T20:37:04.262Z,100466.00
2023-05-10T20:39:31.992Z,100458.75
2023-05-10T20:42:00.301Z,100460.03
2023-05-10T20:44:28.004Z,100465.97
2023-05-10T20:46:57.464Z,100468.66
2023-05-10T20:49:25.115Z,100464.22
2023-05-10T20:51:52.026Z,100463.53
2023-05-10T20:54:18.900Z,100462.91
2023-05-10T20:56:45.838Z,100465.56
2023-05-10T20:59:12.789Z,100395.66
2023-05-10T21:01:39.740Z,100465.69
2023-05-10T21:04:06.786Z,100456.75
2023-05-10T21:06:33.627Z,100462.91
2023-05-10T21:09:00.418Z,100460.47
2023-05-10T21:11:27.266Z,100434.44
2023-05-10T21:13:54.155Z,100455.44
2023-05-10T21:16:21.249Z,100457.09
2023-05-10T21:18:48.152Z,100454.53
2023-05-10T21:21:15.027Z,100461.66
2023-05-10T21:23:41.847Z,100452.25
2023-05-10T21:26:08.658Z,100451.22
2023-05-10T21:28:35.638Z,100460.81
2023-05-10T21:31:02.519Z,100467.00
2023-05-10T21:33:29.444Z,100461.91
2023-05-10T21:35:56.963Z,100453.91
2023-05-10T21:38:23.800Z,100454.75
2023-05-10T21:40:50.574Z,100457.53
2023-05-10T21:43:17.374Z,100459.28
2023-05-10T21:45:44.230Z,100466.53
2023-05-10T21:48:11.118Z,100464.97
2023-05-10T21:50:38.040Z,100466.41
2023-05-10T21:53:05.106Z,100460.34
2023-05-10T21:55:32.013Z,100455.41
2023-05-10T21:57:58.835Z,100470.31
2023-05-10T22:00:25.671Z,100472.03
2023-05-10T22:02:52.666Z,100461.59
2023-05-10T22:05:19.584Z,100424.84
2023-05-10T22:07:46.372Z,100470.16
2023-05-10T22:10:13.274Z,100437.16
2023-05-10T22:12:40.055Z,100472.09
2023-05-10T22:15:10.166Z,100458.88
2023-05-10T22:17:39.622Z,100462.62
2023-05-10T22:20:08.497Z,100466.16
2023-05-10T22:22:36.786Z,100468.66
2023-05-10T22:25:05.799Z,100375.41
2023-05-10T22:27:32.641Z,100471.56
2023-05-10T22:29:59.552Z,100470.56
2023-05-10T22:32:26.373Z,100477.91
2023-05-10T22:34:53.254Z,100475.50
2023-05-10T22:37:20.129Z,100473.84
2023-05-10T22:39:47.114Z,100461.63
2023-05-10T22:42:14.074Z,100436.38
2023-05-10T22:44:40.989Z,100470.63
2023-05-10T22:47:09.068Z,100469.97
2023-05-10T22:49:35.953Z,100472.31
2023-05-10T22:52:02.805Z,100472.44
2023-05-10T22:54:29.670Z,100470.78
2023-05-10T22:56:56.738Z,100479.06
2023-05-10T22:59:23.865Z,100467.75
2023-05-10T23:01:50.821Z,100474.34
2023-05-10T23:04:18.070Z,100477.81
2023-05-10T23:06:45.956Z,100448.81
2023-05-10T23:09:12.815Z,100473.28
2023-05-10T23:11:39.655Z,100470.69
2023-05-10T23:14:06.480Z,100375.53
2023-05-10T23:16:33.434Z,100475.81
2023-05-10T23:19:00.305Z,100477.78
2023-05-10T23:21:28.294Z,100475.94
2023-05-10T23:23:56.280Z,100475.19
2023-05-10T23:26:23.179Z,100472.56
2023-05-10T23:28:50.009Z,100474.56
2023-05-10T23:31:16.854Z,100472.09
2023-05-10T23:33:43.697Z,100452.19
2023-05-10T23:36:10.597Z,100467.22
2023-05-10T23:38:39.273Z,100473.50
2023-05-10T23:41:06.250Z,100474.84
2023-05-10T23:43:33.155Z,100477.50
2023-05-10T23:46:00.123Z,100460.19
2023-05-10T23:48:27.000Z,100478.38
2023-05-10T23:50:53.866Z,100474.00
2023-05-10T23:53:20.748Z,100479.19
2023-05-10T23:55:47.616Z,100485.13
2023-05-10T23:58:14.594Z,100486.59
